sensor_id;sensor_type;location;lat;lon;timestamp;P1;durP1;ratioP1;P2;durP2;ratioP2
81176;SDS011;74095;48.270;14.200;2024-02-14T00:00:10;13.48;;;7.68;;
81176;SDS011;74095;48.270;14.200;2024-02-14T00:02:47;13.02;;;8.65;;
81176;SDS011;74095;48.270;14.200;2024-02-14T00:05:17;17.13;;;9.05;;
81176;SDS011;74095;48.270;14.200;2024-02-14T00:07:43;15.15;;;9.40;;
81176;SDS011;74095;48.270;14.200;2024-02-14T00:10:09;16.73;;;9.13;;
81176;SDS011;74095;48.270;14.200;2024-02-14T00:12:35;14.40;;;9.02;;
81176;SDS011;74095;48.270;14.200;2024-02-14T00:15:03;17.40;;;9.55;;
81176;SDS011;74095;48.270;14.200;2024-02-14T00:17:29;12.95;;;8.57;;
81176;SDS011;74095;48.270;14.200;2024-02-14T00:19:55;13.15;;;8.57;;
81176;SDS011;74095;48.270;14.200;2024-02-14T00:22:21;15.77;;;8.70;;
81176;SDS011;74095;48.270;14.200;2024-02-14T00:24:47;14.77;;;8.75;;
81176;SDS011;74095;48.270;14.200;2024-02-14T00:27:13;12.98;;;8.68;;
81176;SDS011;74095;48.270;14.200;2024-02-14T00:29:43;12.90;;;8.45;;
81176;SDS011;74095;48.270;14.200;2024-02-14T00:32:11;12.02;;;8.40;;
81176;SDS011;74095;48.270;14.200;2024-02-14T00:34:37;18.70;;;9.68;;
81176;SDS011;74095;48.270;14.200;2024-02-14T00:37:03;13.57;;;8.65;;
81176;SDS011;74095;48.270;14.200;2024-02-14T00:39:29;15.45;;;8.85;;
81176;SDS011;74095;48.270;14.200;2024-02-14T00:41:55;13.80;;;9.13;;
81176;SDS011;74095;48.270;14.200;2024-02-14T00:44:21;20.73;;;10.02;;
81176;SDS011;74095;48.270;14.200;2024-02-14T00:46:48;13.63;;;8.52;;
81176;SDS011;74095;48.270;14.200;2024-02-14T00:49:14;12.43;;;8.02;;
81176;SDS011;74095;48.270;14.200;2024-02-14T00:51:40;12.02;;;7.38;;
81176;SDS011;74095;48.270;14.200;2024-02-14T00:54:06;14.13;;;8.13;;
81176;SDS011;74095;48.270;14.200;2024-02-14T00:56:34;12.20;;;8.02;;
81176;SDS011;74095;48.270;14.200;2024-02-14T00:59:00;9.80;;;7.40;;
81176;SDS011;74095;48.270;14.200;2024-02-14T01:01:26;13.20;;;8.00;;
81176;SDS011;74095;48.270;14.200;2024-02-14T01:03:52;13.00;;;7.45;;
81176;SDS011;74095;48.270;14.200;2024-02-14T01:06:18;12.80;;;7.53;;
81176;SDS011;74095;48.270;14.200;2024-02-14T01:08:45;10.77;;;7.30;;
81176;SDS011;74095;48.270;14.200;2024-02-14T01:11:11;12.15;;;8.00;;
81176;SDS011;74095;48.270;14.200;2024-02-14T01:13:37;10.75;;;6.82;;
81176;SDS011;74095;48.270;14.200;2024-02-14T01:16:03;12.80;;;7.53;;
81176;SDS011;74095;48.270;14.200;2024-02-14T01:18:30;13.27;;;6.93;;
81176;SDS011;74095;48.270;14.200;2024-02-14T01:20:57;11.80;;;7.10;;
81176;SDS011;74095;48.270;14.200;2024-02-14T01:23:24;10.63;;;7.00;;
81176;SDS011;74095;48.270;14.200;2024-02-14T01:25:50;11.70;;;7.97;;
81176;SDS011;74095;48.270;14.200;2024-02-14T01:28:16;14.68;;;7.70;;
81176;SDS011;74095;48.270;14.200;2024-02-14T01:30:43;10.77;;;7.18;;
81176;SDS011;74095;48.270;14.200;2024-02-14T01:33:09;11.10;;;6.72;;
81176;SDS011;74095;48.270;14.200;2024-02-14T01:35:35;11.52;;;7.53;;
81176;SDS011;74095;48.270;14.200;2024-02-14T01:38:01;12.23;;;7.10;;
81176;SDS011;74095;48.270;14.200;2024-02-14T01:40:28;11.85;;;7.50;;
81176;SDS011;74095;48.270;14.200;2024-02-14T01:42:54;12.60;;;7.43;;
81176;SDS011;74095;48.270;14.200;2024-02-14T01:45:21;10.88;;;7.22;;
81176;SDS011;74095;48.270;14.200;2024-02-14T01:47:48;13.68;;;7.78;;
81176;SDS011;74095;48.270;14.200;2024-02-14T01:50:15;7.88;;;5.15;;
81176;SDS011;74095;48.270;14.200;2024-02-14T01:52:41;14.52;;;7.13;;
81176;SDS011;74095;48.270;14.200;2024-02-14T01:55:09;10.63;;;6.43;;
81176;SDS011;74095;48.270;14.200;2024-02-14T01:57:37;10.77;;;6.63;;
81176;SDS011;74095;48.270;14.200;2024-02-14T02:00:04;13.38;;;7.05;;
81176;SDS011;74095;48.270;14.200;2024-02-14T02:02:34;9.80;;;6.88;;
81176;SDS011;74095;48.270;14.200;2024-02-14T02:05:03;10.10;;;6.57;;
81176;SDS011;74095;48.270;14.200;2024-02-14T02:07:29;9.40;;;6.15;;
81176;SDS011;74095;48.270;14.200;2024-02-14T02:09:55;13.40;;;7.15;;
81176;SDS011;74095;48.270;14.200;2024-02-14T02:12:21;13.68;;;8.60;;
81176;SDS011;74095;48.270;14.200;2024-02-14T02:14:48;14.00;;;9.82;;
81176;SDS011;74095;48.270;14.200;2024-02-14T02:17:15;14.65;;;9.93;;
81176;SDS011;74095;48.270;14.200;2024-02-14T02:19:41;14.18;;;9.27;;
81176;SDS011;74095;48.270;14.200;2024-02-14T02:22:07;13.38;;;8.98;;
81176;SDS011;74095;48.270;14.200;2024-02-14T02:24:33;16.83;;;9.65;;
81176;SDS011;74095;48.270;14.200;2024-02-14T02:26:59;19.15;;;11.00;;
81176;SDS011;74095;48.270;14.200;2024-02-14T02:29:25;16.85;;;9.68;;
81176;SDS011;74095;48.270;14.200;2024-02-14T02:31:51;13.13;;;8.63;;
81176;SDS011;74095;48.270;14.200;2024-02-14T02:34:17;14.52;;;9.60;;
81176;SDS011;74095;48.270;14.200;2024-02-14T02:36:43;14.18;;;9.13;;
81176;SDS011;74095;48.270;14.200;2024-02-14T02:39:11;15.40;;;8.85;;
81176;SDS011;74095;48.270;14.200;2024-02-14T02:41:37;13.93;;;8.50;;
81176;SDS011;74095;48.270;14.200;2024-02-14T02:44:03;12.90;;;8.05;;
81176;SDS011;74095;48.270;14.200;2024-02-14T02:46:32;14.48;;;9.63;;
81176;SDS011;74095;48.270;14.200;2024-02-14T02:48:58;17.30;;;10.80;;
81176;SDS011;74095;48.270;14.200;2024-02-14T02:51:24;15.75;;;8.02;;
81176;SDS011;74095;48.270;14.200;2024-02-14T02:53:50;14.90;;;9.45;;
81176;SDS011;74095;48.270;14.200;2024-02-14T02:56:17;14.07;;;9.43;;
81176;SDS011;74095;48.270;14.200;2024-02-14T02:58:44;9.70;;;6.60;;
81176;SDS011;74095;48.270;14.200;2024-02-14T03:01:10;12.57;;;9.00;;
81176;SDS011;74095;48.270;14.200;2024-02-14T03:03:39;20.77;;;10.63;;
81176;SDS011;74095;48.270;14.200;2024-02-14T03:06:08;13.80;;;7.78;;
81176;SDS011;74095;48.270;14.200;2024-02-14T03:08:36;17.30;;;9.65;;
81176;SDS011;74095;48.270;14.200;2024-02-14T03:11:05;15.93;;;8.90;;
81176;SDS011;74095;48.270;14.200;2024-02-14T03:13:32;17.50;;;10.05;;
81176;SDS011;74095;48.270;14.200;2024-02-14T03:15:58;14.50;;;9.35;;
81176;SDS011;74095;48.270;14.200;2024-02-14T03:18:28;16.10;;;9.73;;
81176;SDS011;74095;48.270;14.200;2024-02-14T03:21:02;9.95;;;6.13;;
81176;SDS011;74095;48.270;14.200;2024-02-14T03:23:36;14.68;;;9.70;;
81176;SDS011;74095;48.270;14.200;2024-02-14T03:26:07;15.88;;;9.55;;
81176;SDS011;74095;48.270;14.200;2024-02-14T03:28:37;11.32;;;8.35;;
81176;SDS011;74095;48.270;14.200;2024-02-14T03:31:08;13.18;;;7.25;;
81176;SDS011;74095;48.270;14.200;2024-02-14T03:33:43;14.93;;;7.93;;
81176;SDS011;74095;48.270;14.200;2024-02-14T03:36:15;9.55;;;5.78;;
81176;SDS011;74095;48.270;14.200;2024-02-14T03:38:46;13.13;;;6.10;;
81176;SDS011;74095;48.270;14.200;2024-02-14T03:41:16;11.95;;;8.07;;
81176;SDS011;74095;48.270;14.200;2024-02-14T03:43:45;13.80;;;9.27;;
81176;SDS011;74095;48.270;14.200;2024-02-14T03:46:15;17.67;;;9.48;;
81176;SDS011;74095;48.270;14.200;2024-02-14T03:48:44;16.98;;;9.95;;
81176;SDS011;74095;48.270;14.200;2024-02-14T03:51:15;17.38;;;11.75;;
81176;SDS011;74095;48.270;14.200;2024-02-14T03:53:45;16.17;;;10.18;;
81176;SDS011;74095;48.270;14.200;2024-02-14T03:56:17;9.50;;;5.47;;
81176;SDS011;74095;48.270;14.200;2024-02-14T03:58:47;12.60;;;7.88;;
81176;SDS011;74095;48.270;14.200;2024-02-14T04:01:19;12.95;;;9.43;;
81176;SDS011;74095;48.270;14.200;2024-02-14T04:03:51;14.90;;;8.85;;
81176;SDS011;74095;48.270;14.200;2024-02-14T04:06:22;14.13;;;9.25;;
81176;SDS011;74095;48.270;14.200;2024-02-14T04:11:22;15.13;;;8.70;;
81176;SDS011;74095;48.270;14.200;2024-02-14T04:13:52;15.75;;;10.45;;
81176;SDS011;74095;48.270;14.200;2024-02-14T04:16:20;17.38;;;10.38;;
81176;SDS011;74095;48.270;14.200;2024-02-14T04:18:49;14.00;;;9.48;;
81176;SDS011;74095;48.270;14.200;2024-02-14T04:21:19;14.73;;;10.05;;
81176;SDS011;74095;48.270;14.200;2024-02-14T04:23:49;16.95;;;10.50;;
81176;SDS011;74095;48.270;14.200;2024-02-14T04:26:21;15.55;;;8.10;;
81176;SDS011;74095;48.270;14.200;2024-02-14T04:28:50;10.50;;;7.65;;
81176;SDS011;74095;48.270;14.200;2024-02-14T04:31:19;12.32;;;8.93;;
81176;SDS011;74095;48.270;14.200;2024-02-14T04:33:48;14.63;;;9.30;;
81176;SDS011;74095;48.270;14.200;2024-02-14T04:36:19;9.85;;;6.65;;
81176;SDS011;74095;48.270;14.200;2024-02-14T04:38:50;16.85;;;8.95;;
81176;SDS011;74095;48.270;14.200;2024-02-14T04:41:22;18.73;;;10.02;;
81176;SDS011;74095;48.270;14.200;2024-02-14T04:43:51;10.85;;;7.93;;
81176;SDS011;74095;48.270;14.200;2024-02-14T04:46:23;14.80;;;8.38;;
81176;SDS011;74095;48.270;14.200;2024-02-14T04:48:57;13.77;;;9.10;;
81176;SDS011;74095;48.270;14.200;2024-02-14T04:51:29;16.65;;;11.75;;
81176;SDS011;74095;48.270;14.200;2024-02-14T04:53:59;17.95;;;12.55;;
81176;SDS011;74095;48.270;14.200;2024-02-14T04:56:28;12.85;;;8.85;;
81176;SDS011;74095;48.270;14.200;2024-02-14T04:58:59;20.08;;;12.63;;
81176;SDS011;74095;48.270;14.200;2024-02-14T05:01:32;19.10;;;13.13;;
81176;SDS011;74095;48.270;14.200;2024-02-14T05:04:04;16.70;;;11.02;;
81176;SDS011;74095;48.270;14.200;2024-02-14T05:06:34;19.58;;;12.57;;
81176;SDS011;74095;48.270;14.200;2024-02-14T05:09:06;16.20;;;10.13;;
81176;SDS011;74095;48.270;14.200;2024-02-14T05:11:38;14.25;;;11.10;;
81176;SDS011;74095;48.270;14.200;2024-02-14T05:14:08;17.30;;;10.52;;
81176;SDS011;74095;48.270;14.200;2024-02-14T05:16:38;10.13;;;7.15;;
81176;SDS011;74095;48.270;14.200;2024-02-14T05:19:08;17.48;;;10.23;;
81176;SDS011;74095;48.270;14.200;2024-02-14T05:21:38;13.70;;;9.73;;
81176;SDS011;74095;48.270;14.200;2024-02-14T05:24:08;15.60;;;10.65;;
81176;SDS011;74095;48.270;14.200;2024-02-14T05:26:38;10.90;;;6.60;;
81176;SDS011;74095;48.270;14.200;2024-02-14T05:29:07;14.35;;;9.73;;
81176;SDS011;74095;48.270;14.200;2024-02-14T05:31:46;8.93;;;5.40;;
81176;SDS011;74095;48.270;14.200;2024-02-14T05:34:22;16.13;;;10.60;;
81176;SDS011;74095;48.270;14.200;2024-02-14T05:36:54;22.48;;;14.43;;
81176;SDS011;74095;48.270;14.200;2024-02-14T05:39:26;19.95;;;12.82;;
81176;SDS011;74095;48.270;14.200;2024-02-14T05:41:57;18.15;;;11.52;;
81176;SDS011;74095;48.270;14.200;2024-02-14T05:44:29;14.73;;;9.25;;
81176;SDS011;74095;48.270;14.200;2024-02-14T05:46:59;17.92;;;10.73;;
81176;SDS011;74095;48.270;14.200;2024-02-14T05:49:30;16.73;;;12.40;;
81176;SDS011;74095;48.270;14.200;2024-02-14T05:52:01;19.60;;;14.23;;
81176;SDS011;74095;48.270;14.200;2024-02-14T05:54:30;12.90;;;9.32;;
81176;SDS011;74095;48.270;14.200;2024-02-14T05:56:58;17.55;;;11.65;;
81176;SDS011;74095;48.270;14.200;2024-02-14T05:59:33;16.35;;;10.73;;
81176;SDS011;74095;48.270;14.200;2024-02-14T06:02:01;10.88;;;6.68;;
81176;SDS011;74095;48.270;14.200;2024-02-14T06:04:40;19.15;;;12.23;;
81176;SDS011;74095;48.270;14.200;2024-02-14T06:07:36;13.20;;;7.45;;
81176;SDS011;74095;48.270;14.200;2024-02-14T06:10:36;15.32;;;9.90;;
81176;SDS011;74095;48.270;14.200;2024-02-14T06:13:29;17.25;;;11.50;;
81176;SDS011;74095;48.270;14.200;2024-02-14T06:16:22;18.70;;;12.10;;
81176;SDS011;74095;48.270;14.200;2024-02-14T06:19:19;18.90;;;12.32;;
81176;SDS011;74095;48.270;14.200;2024-02-14T06:25:19;22.05;;;12.40;;
81176;SDS011;74095;48.270;14.200;2024-02-14T06:28:10;16.05;;;11.88;;
81176;SDS011;74095;48.270;14.200;2024-02-14T06:31:02;20.35;;;13.38;;
81176;SDS011;74095;48.270;14.200;2024-02-14T06:33:54;15.95;;;10.82;;
81176;SDS011;74095;48.270;14.200;2024-02-14T06:36:52;15.15;;;9.55;;
81176;SDS011;74095;48.270;14.200;2024-02-14T06:39:55;17.17;;;10.75;;
81176;SDS011;74095;48.270;14.200;2024-02-14T06:43:00;20.33;;;11.98;;
81176;SDS011;74095;48.270;14.200;2024-02-14T06:45:50;19.52;;;11.15;;
81176;SDS011;74095;48.270;14.200;2024-02-14T06:51:44;15.32;;;9.75;;
81176;SDS011;74095;48.270;14.200;2024-02-14T06:54:38;12.10;;;9.43;;
81176;SDS011;74095;48.270;14.200;2024-02-14T06:57:31;24.08;;;10.52;;
81176;SDS011;74095;48.270;14.200;2024-02-14T07:00:27;16.05;;;9.30;;
81176;SDS011;74095;48.270;14.200;2024-02-14T07:03:24;12.82;;;8.57;;
81176;SDS011;74095;48.270;14.200;2024-02-14T07:06:20;12.38;;;6.22;;
81176;SDS011;74095;48.270;14.200;2024-02-14T07:09:16;14.63;;;9.35;;
81176;SDS011;74095;48.270;14.200;2024-02-14T07:12:28;14.35;;;9.90;;
81176;SDS011;74095;48.270;14.200;2024-02-14T07:15:24;15.50;;;9.80;;
81176;SDS011;74095;48.270;14.200;2024-02-14T07:18:19;14.85;;;9.52;;
81176;SDS011;74095;48.270;14.200;2024-02-14T07:21:10;15.32;;;9.57;;
81176;SDS011;74095;48.270;14.200;2024-02-14T07:24:03;11.15;;;6.72;;
81176;SDS011;74095;48.270;14.200;2024-02-14T07:26:56;15.10;;;9.25;;
81176;SDS011;74095;48.270;14.200;2024-02-14T07:29:52;18.00;;;9.90;;
81176;SDS011;74095;48.270;14.200;2024-02-14T07:32:45;51.95;;;14.57;;
81176;SDS011;74095;48.270;14.200;2024-02-14T07:35:38;18.83;;;11.80;;
81176;SDS011;74095;48.270;14.200;2024-02-14T07:38:34;16.50;;;10.95;;
81176;SDS011;74095;48.270;14.200;2024-02-14T07:41:29;16.45;;;10.48;;
81176;SDS011;74095;48.270;14.200;2024-02-14T07:44:22;15.68;;;10.18;;
81176;SDS011;74095;48.270;14.200;2024-02-14T07:47:14;17.92;;;10.35;;
81176;SDS011;74095;48.270;14.200;2024-02-14T07:53:10;18.85;;;11.35;;
81176;SDS011;74095;48.270;14.200;2024-02-14T07:56:07;17.67;;;10.93;;
81176;SDS011;74095;48.270;14.200;2024-02-14T07:58:59;14.05;;;10.13;;
81176;SDS011;74095;48.270;14.200;2024-02-14T08:01:55;15.13;;;10.38;;
81176;SDS011;74095;48.270;14.200;2024-02-14T08:04:51;17.13;;;10.55;;
81176;SDS011;74095;48.270;14.200;2024-02-14T08:07:53;14.60;;;10.25;;
81176;SDS011;74095;48.270;14.200;2024-02-14T08:10:46;14.40;;;10.02;;
81176;SDS011;74095;48.270;14.200;2024-02-14T08:13:44;14.30;;;10.10;;
81176;SDS011;74095;48.270;14.200;2024-02-14T08:16:39;13.38;;;8.00;;
81176;SDS011;74095;48.270;14.200;2024-02-14T08:22:31;15.35;;;10.82;;
81176;SDS011;74095;48.270;14.200;2024-02-14T08:25:29;15.32;;;10.52;;
81176;SDS011;74095;48.270;14.200;2024-02-14T08:28:22;16.02;;;10.30;;
81176;SDS011;74095;48.270;14.200;2024-02-14T08:31:15;17.95;;;11.43;;
81176;SDS011;74095;48.270;14.200;2024-02-14T08:34:07;19.95;;;12.48;;
81176;SDS011;74095;48.270;14.200;2024-02-14T08:37:04;18.42;;;12.13;;
81176;SDS011;74095;48.270;14.200;2024-02-14T08:40:04;19.95;;;12.30;;
81176;SDS011;74095;48.270;14.200;2024-02-14T08:42:58;18.30;;;13.20;;
81176;SDS011;74095;48.270;14.200;2024-02-14T08:45:54;17.55;;;12.18;;
81176;SDS011;74095;48.270;14.200;2024-02-14T08:48:47;16.52;;;12.15;;
81176;SDS011;74095;48.270;14.200;2024-02-14T08:51:44;23.42;;;11.00;;
81176;SDS011;74095;48.270;14.200;2024-02-14T08:54:36;16.98;;;11.85;;
81176;SDS011;74095;48.270;14.200;2024-02-14T08:57:33;21.42;;;12.50;;
81176;SDS011;74095;48.270;14.200;2024-02-14T09:00:27;17.67;;;12.27;;
81176;SDS011;74095;48.270;14.200;2024-02-14T09:03:27;16.50;;;11.80;;
81176;SDS011;74095;48.270;14.200;2024-02-14T09:06:21;17.65;;;11.57;;
81176;SDS011;74095;48.270;14.200;2024-02-14T09:09:20;18.73;;;10.50;;
81176;SDS011;74095;48.270;14.200;2024-02-14T09:12:16;24.35;;;12.00;;
81176;SDS011;74095;48.270;14.200;2024-02-14T09:15:08;16.25;;;10.40;;
81176;SDS011;74095;48.270;14.200;2024-02-14T09:18:09;18.45;;;11.45;;
81176;SDS011;74095;48.270;14.200;2024-02-14T09:21:06;18.95;;;10.75;;
81176;SDS011;74095;48.270;14.200;2024-02-14T09:23:58;20.58;;;11.68;;
81176;SDS011;74095;48.270;14.200;2024-02-14T09:26:56;18.13;;;11.00;;
81176;SDS011;74095;48.270;14.200;2024-02-14T09:29:53;18.17;;;11.27;;
81176;SDS011;74095;48.270;14.200;2024-02-14T09:32:53;18.67;;;11.38;;
81176;SDS011;74095;48.270;14.200;2024-02-14T09:35:53;19.00;;;11.30;;
81176;SDS011;74095;48.270;14.200;2024-02-14T09:38:36;19.48;;;9.30;;
81176;SDS011;74095;48.270;14.200;2024-02-14T09:41:06;20.17;;;11.38;;
81176;SDS011;74095;48.270;14.200;2024-02-14T09:43:47;22.17;;;10.77;;
81176;SDS011;74095;48.270;14.200;2024-02-14T09:46:13;19.35;;;11.60;;
81176;SDS011;74095;48.270;14.200;2024-02-14T09:48:40;19.38;;;12.27;;
81176;SDS011;74095;48.270;14.200;2024-02-14T09:51:09;18.20;;;10.70;;
81176;SDS011;74095;48.270;14.200;2024-02-14T09:53:37;19.13;;;10.43;;
81176;SDS011;74095;48.270;14.200;2024-02-14T09:56:04;20.75;;;10.57;;
81176;SDS011;74095;48.270;14.200;2024-02-14T09:58:31;16.75;;;10.02;;
81176;SDS011;74095;48.270;14.200;2024-02-14T10:00:57;18.55;;;10.18;;
81176;SDS011;74095;48.270;14.200;2024-02-14T10:03:24;15.38;;;9.70;;
81176;SDS011;74095;48.270;14.200;2024-02-14T10:05:51;13.30;;;7.80;;
81176;SDS011;74095;48.270;14.200;2024-02-14T10:08:18;18.48;;;10.98;;
81176;SDS011;74095;48.270;14.200;2024-02-14T10:10:44;13.27;;;9.15;;
81176;SDS011;74095;48.270;14.200;2024-02-14T10:13:11;18.05;;;10.60;;
81176;SDS011;74095;48.270;14.200;2024-02-14T10:15:37;10.93;;;7.70;;
81176;SDS011;74095;48.270;14.200;2024-02-14T10:18:02;9.70;;;7.25;;
81176;SDS011;74095;48.270;14.200;2024-02-14T10:20:29;12.23;;;8.68;;
81176;SDS011;74095;48.270;14.200;2024-02-14T10:23:03;11.27;;;7.25;;
81176;SDS011;74095;48.270;14.200;2024-02-14T10:25:29;13.27;;;7.22;;
81176;SDS011;74095;48.270;14.200;2024-02-14T10:27:57;12.13;;;7.63;;
81176;SDS011;74095;48.270;14.200;2024-02-14T10:30:22;11.38;;;7.47;;
81176;SDS011;74095;48.270;14.200;2024-02-14T10:32:48;11.02;;;6.82;;
81176;SDS011;74095;48.270;14.200;2024-02-14T10:35:14;11.77;;;6.70;;
81176;SDS011;74095;48.270;14.200;2024-02-14T10:37:41;12.30;;;8.15;;
81176;SDS011;74095;48.270;14.200;2024-02-14T10:40:07;11.40;;;7.57;;
81176;SDS011;74095;48.270;14.200;2024-02-14T10:42:34;8.75;;;6.15;;
81176;SDS011;74095;48.270;14.200;2024-02-14T10:45:01;9.25;;;5.45;;
81176;SDS011;74095;48.270;14.200;2024-02-14T10:47:36;7.28;;;5.57;;
81176;SDS011;74095;48.270;14.200;2024-02-14T10:50:06;6.18;;;4.95;;
81176;SDS011;74095;48.270;14.200;2024-02-14T10:52:35;7.28;;;5.40;;
81176;SDS011;74095;48.270;14.200;2024-02-14T10:55:03;8.15;;;4.90;;
81176;SDS011;74095;48.270;14.200;2024-02-14T10:57:31;10.02;;;5.82;;
81176;SDS011;74095;48.270;14.200;2024-02-14T11:00:07;11.63;;;6.45;;
81176;SDS011;74095;48.270;14.200;2024-02-14T11:02:36;10.50;;;7.35;;
81176;SDS011;74095;48.270;14.200;2024-02-14T11:05:03;11.27;;;6.57;;
81176;SDS011;74095;48.270;14.200;2024-02-14T11:07:29;7.97;;;5.70;;
81176;SDS011;74095;48.270;14.200;2024-02-14T11:10:15;9.32;;;5.68;;
81176;SDS011;74095;48.270;14.200;2024-02-14T11:12:42;11.07;;;6.50;;
81176;SDS011;74095;48.270;14.200;2024-02-14T11:15:11;11.15;;;5.90;;
81176;SDS011;74095;48.270;14.200;2024-02-14T11:17:45;11.63;;;6.70;;
81176;SDS011;74095;48.270;14.200;2024-02-14T11:20:21;9.65;;;6.18;;
81176;SDS011;74095;48.270;14.200;2024-02-14T11:22:57;9.13;;;6.22;;
81176;SDS011;74095;48.270;14.200;2024-02-14T11:25:32;6.85;;;5.28;;
81176;SDS011;74095;48.270;14.200;2024-02-14T11:28:18;8.40;;;6.13;;
81176;SDS011;74095;48.270;14.200;2024-02-14T11:30:49;7.53;;;4.25;;
81176;SDS011;74095;48.270;14.200;2024-02-14T11:33:18;11.55;;;6.95;;
81176;SDS011;74095;48.270;14.200;2024-02-14T11:35:47;10.77;;;7.55;;
81176;SDS011;74095;48.270;14.200;2024-02-14T11:38:18;10.00;;;6.05;;
81176;SDS011;74095;48.270;14.200;2024-02-14T11:40:45;7.68;;;5.88;;
81176;SDS011;74095;48.270;14.200;2024-02-14T11:43:14;8.00;;;5.75;;
81176;SDS011;74095;48.270;14.200;2024-02-14T11:48:09;10.40;;;6.20;;
81176;SDS011;74095;48.270;14.200;2024-02-14T11:50:36;9.35;;;6.00;;
81176;SDS011;74095;48.270;14.200;2024-02-14T11:53:05;7.65;;;4.88;;
81176;SDS011;74095;48.270;14.200;2024-02-14T11:55:34;7.85;;;6.10;;
81176;SDS011;74095;48.270;14.200;2024-02-14T11:58:06;7.72;;;5.30;;
81176;SDS011;74095;48.270;14.200;2024-02-14T12:00:33;7.63;;;6.40;;
81176;SDS011;74095;48.270;14.200;2024-02-14T12:03:01;8.32;;;5.78;;
81176;SDS011;74095;48.270;14.200;2024-02-14T12:05:27;9.30;;;5.35;;
81176;SDS011;74095;48.270;14.200;2024-02-14T12:07:53;7.95;;;5.25;;
81176;SDS011;74095;48.270;14.200;2024-02-14T12:10:19;9.75;;;4.85;;
81176;SDS011;74095;48.270;14.200;2024-02-14T12:12:47;8.52;;;4.82;;
81176;SDS011;74095;48.270;14.200;2024-02-14T12:15:13;5.40;;;3.25;;
81176;SDS011;74095;48.270;14.200;2024-02-14T12:17:41;5.22;;;4.10;;
81176;SDS011;74095;48.270;14.200;2024-02-14T12:20:08;5.00;;;3.38;;
81176;SDS011;74095;48.270;14.200;2024-02-14T12:22:36;5.38;;;3.50;;
81176;SDS011;74095;48.270;14.200;2024-02-14T12:25:02;4.75;;;2.90;;
81176;SDS011;74095;48.270;14.200;2024-02-14T12:27:33;4.10;;;3.17;;
81176;SDS011;74095;48.270;14.200;2024-02-14T12:30:02;7.45;;;3.97;;
81176;SDS011;74095;48.270;14.200;2024-02-14T12:32:29;10.48;;;5.30;;
81176;SDS011;74095;48.270;14.200;2024-02-14T12:34:56;12.65;;;6.40;;
81176;SDS011;74095;48.270;14.200;2024-02-14T12:37:23;5.15;;;3.50;;
81176;SDS011;74095;48.270;14.200;2024-02-14T12:39:49;4.38;;;2.53;;
81176;SDS011;74095;48.270;14.200;2024-02-14T12:42:15;3.50;;;2.92;;
81176;SDS011;74095;48.270;14.200;2024-02-14T12:44:40;3.88;;;3.00;;
81176;SDS011;74095;48.270;14.200;2024-02-14T12:47:06;5.38;;;3.53;;
81176;SDS011;74095;48.270;14.200;2024-02-14T12:49:33;5.72;;;3.42;;
81176;SDS011;74095;48.270;14.200;2024-02-14T12:51:59;6.60;;;3.80;;
81176;SDS011;74095;48.270;14.200;2024-02-14T12:54:25;4.90;;;3.88;;
81176;SDS011;74095;48.270;14.200;2024-02-14T12:56:52;6.13;;;4.05;;
81176;SDS011;74095;48.270;14.200;2024-02-14T12:59:18;6.38;;;4.18;;
81176;SDS011;74095;48.270;14.200;2024-02-14T13:01:44;5.70;;;3.97;;
81176;SDS011;74095;48.270;14.200;2024-02-14T13:04:10;7.20;;;4.32;;
81176;SDS011;74095;48.270;14.200;2024-02-14T13:06:36;5.47;;;4.03;;
81176;SDS011;74095;48.270;14.200;2024-02-14T13:09:05;7.85;;;4.40;;
81176;SDS011;74095;48.270;14.200;2024-02-14T13:11:33;4.82;;;3.60;;
81176;SDS011;74095;48.270;14.200;2024-02-14T13:13:58;5.32;;;4.28;;
81176;SDS011;74095;48.270;14.200;2024-02-14T13:16:24;5.00;;;3.80;;
81176;SDS011;74095;48.270;14.200;2024-02-14T13:18:50;5.25;;;3.67;;
81176;SDS011;74095;48.270;14.200;2024-02-14T13:21:18;7.85;;;4.45;;
81176;SDS011;74095;48.270;14.200;2024-02-14T13:23:44;6.15;;;3.72;;
81176;SDS011;74095;48.270;14.200;2024-02-14T13:26:10;7.15;;;4.38;;
81176;SDS011;74095;48.270;14.200;2024-02-14T13:28:36;6.55;;;4.40;;
81176;SDS011;74095;48.270;14.200;2024-02-14T13:31:02;6.18;;;5.07;;
81176;SDS011;74095;48.270;14.200;2024-02-14T13:33:28;7.47;;;4.30;;
81176;SDS011;74095;48.270;14.200;2024-02-14T13:35:53;9.20;;;4.32;;
81176;SDS011;74095;48.270;14.200;2024-02-14T13:38:19;6.72;;;3.92;;
81176;SDS011;74095;48.270;14.200;2024-02-14T13:40:46;5.95;;;3.72;;
81176;SDS011;74095;48.270;14.200;2024-02-14T13:43:12;8.45;;;3.58;;
81176;SDS011;74095;48.270;14.200;2024-02-14T13:45:41;5.65;;;3.53;;
81176;SDS011;74095;48.270;14.200;2024-02-14T13:48:09;5.40;;;3.88;;
81176;SDS011;74095;48.270;14.200;2024-02-14T13:50:36;5.50;;;4.40;;
81176;SDS011;74095;48.270;14.200;2024-02-14T13:53:03;6.13;;;3.90;;
81176;SDS011;74095;48.270;14.200;2024-02-14T13:55:30;6.15;;;3.60;;
81176;SDS011;74095;48.270;14.200;2024-02-14T13:57:55;7.22;;;3.95;;
81176;SDS011;74095;48.270;14.200;2024-02-14T14:00:21;5.15;;;4.30;;
81176;SDS011;74095;48.270;14.200;2024-02-14T14:02:47;10.38;;;4.25;;
81176;SDS011;74095;48.270;14.200;2024-02-14T14:05:13;6.75;;;4.57;;
81176;SDS011;74095;48.270;14.200;2024-02-14T14:07:39;9.60;;;4.30;;
81176;SDS011;74095;48.270;14.200;2024-02-14T14:10:06;6.60;;;3.88;;
81176;SDS011;74095;48.270;14.200;2024-02-14T14:12:32;6.38;;;4.03;;
81176;SDS011;74095;48.270;14.200;2024-02-14T14:14:59;5.85;;;3.88;;
81176;SDS011;74095;48.270;14.200;2024-02-14T14:17:26;8.00;;;3.72;;
81176;SDS011;74095;48.270;14.200;2024-02-14T14:19:52;5.90;;;4.25;;
81176;SDS011;74095;48.270;14.200;2024-02-14T14:22:19;5.38;;;3.55;;
81176;SDS011;74095;48.270;14.200;2024-02-14T14:24:45;3.83;;;3.33;;
81176;SDS011;74095;48.270;14.200;2024-02-14T14:27:11;8.07;;;4.13;;
81176;SDS011;74095;48.270;14.200;2024-02-14T14:29:40;7.25;;;4.30;;
81176;SDS011;74095;48.270;14.200;2024-02-14T14:32:09;7.22;;;3.60;;
81176;SDS011;74095;48.270;14.200;2024-02-14T14:34:35;3.95;;;3.25;;
81176;SDS011;74095;48.270;14.200;2024-02-14T14:37:02;5.15;;;3.50;;
81176;SDS011;74095;48.270;14.200;2024-02-14T14:39:28;6.38;;;3.60;;
81176;SDS011;74095;48.270;14.200;2024-02-14T14:41:54;5.43;;;3.13;;
81176;SDS011;74095;48.270;14.200;2024-02-14T14:44:24;7.80;;;5.03;;
81176;SDS011;74095;48.270;14.200;2024-02-14T14:46:50;19.85;;;11.48;;
81176;SDS011;74095;48.270;14.200;2024-02-14T14:49:16;9.55;;;6.60;;
81176;SDS011;74095;48.270;14.200;2024-02-14T14:51:42;10.60;;;5.97;;
81176;SDS011;74095;48.270;14.200;2024-02-14T14:54:08;10.40;;;6.40;;
81176;SDS011;74095;48.270;14.200;2024-02-14T14:56:35;7.60;;;4.25;;
81176;SDS011;74095;48.270;14.200;2024-02-14T14:59:00;7.28;;;5.72;;
81176;SDS011;74095;48.270;14.200;2024-02-14T15:01:32;8.88;;;6.32;;
81176;SDS011;74095;48.270;14.200;2024-02-14T15:04:02;7.80;;;5.47;;
81176;SDS011;74095;48.270;14.200;2024-02-14T15:06:28;8.05;;;5.53;;
81176;SDS011;74095;48.270;14.200;2024-02-14T15:08:54;5.18;;;3.80;;
81176;SDS011;74095;48.270;14.200;2024-02-14T15:11:20;6.47;;;4.50;;
81176;SDS011;74095;48.270;14.200;2024-02-14T15:13:46;4.22;;;3.03;;